EGSSLIPY

Guest
Details From EGSS - London Stansted
To LIPY - Falconara
Flight Number -
Tags Generated
Created
Modified
Stats Distance 725 nm / 1,342 km
Max Altitude 0 ft / 0 m
Waypoints 4
Social Downloads 2
Likes 0
Share VATSIM

Download

Looking for another format? Having issues loading an existing format? Contact us
Advertisement - Login to hide

Notes

Generated

Route

EGSS MEDOX ROGAK LIPY

ID Type Via Altitude Latitude Longitude Leg Dist Tot Dist Heading (true) Name
O EGSS APT - 0 ft / 0 m 51.87508˚ 0.21993˚ - 0 nm - -
MEDOX FIX - 0 ft / 0 m 49.33361˚ 5.09694˚ 240 nm 240 nm 127° / 131° -
ROGAK FIX - 0 ft / 0 m 43.87472˚ 12.90278˚ 459 nm 699 nm 133° / 138° -
O LIPY APT - 0 ft / 0 m 43.60691˚ 13.34935˚ 25 nm 724 nm 130° / 130° -

Altitude Profile

Advertisement - Login to hide

Weather


0- 5 10 15 20 25 30 35+ Temperature / ° C

Clouds and Precipitation
Forecast for 2017-12-17 06:00 UTC. Updated 2 hours ago

Ground ~20,000 ft ~40,000 ft Winds

EGSS

Details ICAO EGSS (STN)
Name London Stansted
Region United Kingdom
Timezone Europe/London (UTC+0.0)
Stats Elevation 348 ft / 106 m (AMSL)
Location 51.885097° 0.234962°
Runways 1
Magnetic Variation 0.361° W

METAR

EGSS 170620Z AUTO 25005KT 0150 R22/0400 FZFG VV/// M02/M03 Q1024

Decode

TAF

TAF EGSS 170505Z 1706/1812 VRB04KT 0100 FZFG VV/// BECMG 1709/1712 23010KT 6000 NSW BKN007 TEMPO 1712/1715 2000 BR BKN003 TEMPO 1715/1721 2000 RADZ BKN002 PROB30 TEMPO 1715/1721 24015G25KT BECMG 1719/1722 30012KT 9999 FEW030 PROB30 TEMPO 1721/1803 31015G25KT PROB30 1803/1810 1200 BR BKN001 PROB30 1808/1812 BKN009

Decode

Departure Runways

ID Width Length Bearing (true) Bearing (mag) Surface Threshold Offset Overrun Length
04 151 ft / 46 m 10,011 ft / 3,052 m 42.79° 43.15° Asphalt 994 ft / 303 m 0 ft / 0 m
22 151 ft / 46 m 10,011 ft / 3,052 m 222.81° 223.17° Asphalt 0 ft / 0 m 0 ft / 0 m

LIPY

Details ICAO LIPY (AOI)
Name FALCONARA
Region Italy
Timezone Europe/Rome (UTC+1.0)
Stats Elevation 49 ft / 15 m (AMSL)
Location 43.616351° 13.362310°
Runways 1
Magnetic Variation 3.295° E

METAR

LIPY 170610Z 29008KT 270V330 8000 TS VCSH FEW015CB BKN030 05/03 Q1014

Decode

TAF

TAF LIPY 170500Z 1706/1806 02012KT 9999 SCT030 TEMPO 1706/1712 SHRA BECMG 1718/1720 32007KT

Decode

Destination Runways

ID Width Length Bearing (true) Bearing (mag) Surface Threshold Offset Overrun Length
04 148 ft / 45 m 9,711 ft / 2,960 m 44.81° 41.52° Asphalt 641 ft / 195 m 0 ft / 0 m
22 148 ft / 45 m 9,711 ft / 2,960 m 224.83° 221.54° Asphalt 492 ft / 150 m 0 ft / 0 m

Approach Navaids

Runway Type Ident Frequency Range Bearing (true) Bearing (mag) Slope Elevation
22 Localiser IFA 111.90 MHz 18 nm / 33 km 224.79° 221.50° - 47 ft / 14 m (AMSL)
22 Glidescope IFA 111.90 MHz 10 nm / 19 km 224.82° 221.53° 3.50° 34 ft / 10 m (AMSL)
22 DME IFA 111.90 MHz 18 nm / 33 km - - - 50 ft / 15 m (AMSL)

Popular Alternatives